Aérodrome :
LOGIN :

S'inscrire | Disclaimer

   EN    FR    IT 

 










Légende :    VFR   VFR Marginal   IFR   IFR Intensif   IFR Très Intensif
Visi : 
Plafond : 
>= 8 km
>= 3000ft
5 à 8 km
1000 à 3000 ft
1500m à 5 km
500 à 1000 ft
800 à 1500m
200 à 500 ft
< 800m
< 200 ft
Symboles :   Orages  Brouillard  Fortes neiges  Fortes précipitations  Vent > 20 kt
SIGMETs :   Divers  Orages  Givrage  Turbulence  Onde Orograph.  Cendres Volcan.






- Altitude de l'aérodrome : 325 ft
- Code IATA : BES


LFRB - Brest

DERNIER METAR :
  • 072100Z AUTO 21016KT 9999 OVC019 11/09 Q1015 BECMG 22015G25KT OVC006

METARs EXPIRÉS :
  • 072030Z AUTO 21015KT 9999 OVC019 11/08 Q1015 BECMG 22015G25KT OVC006
  • 072000Z AUTO 20013KT 9999 OVC020 10/08 Q1016 BECMG 22015G25KT OVC006
  • 071930Z AUTO 20014KT 9999 BKN022 10/07 Q1016 BECMG 22015G25KT OVC006
  • 071900Z AUTO 20012KT CAVOK 10/08 Q1016 BECMG 22015G25KT
  • 071830Z AUTO 21011KT 9999 BKN022 10/08 Q1016 BECMG 22015G25KT

TAF TAF LFRB
Valide du 07 à 18h jusqu'au 09 à 00h UTC


071700Z 0718/0824 22012KT 9999 SCT012 OVC022
BECMG 0719/0721 22015G25KT
BECMG 0721/0723 OVC006
TEMPO 0800/0803 22020G35KT 2000 RADZ OVC003
FM080400 30015G25KT 9999 BKN012
BECMG 0813/0815 26022G40KT SHRA SCT010 BKN018TCU
PROB30
TEMPO 0815/0824 TSRA BKN006 SCT012CB
ATIS : +33 2 98 32 02 71



MET'MAP, la Météo Aéronautique d'un coup d'oeil ! - Copyright ORBIFLY Décembre 2007 - Disclaimer

ORBIFLY MET'MAP TEAM :

Programmation & Développement : Alexandra Zaïnal
Sur une idée originale de : Baudouin d'Aumeries
Assistance à la programmation : Marc-Olivier Méhu
Soutien technique & logistique : Manuel Goepfert

Contact : metmap@orbifly.com




SOURCES & CREDITS :

   NOAA